sensor_id;sensor_type;location;lat;lon;timestamp;P1;durP1;ratioP1;P2;durP2;ratioP2
32200;SDS011;18701;45.588;5.288;2023-05-21T00:02:08;11.50;;;5.93;;
32200;SDS011;18701;45.588;5.288;2023-05-21T00:04:39;9.30;;;5.32;;
32200;SDS011;18701;45.588;5.288;2023-05-21T00:07:08;13.38;;;5.50;;
32200;SDS011;18701;45.588;5.288;2023-05-21T00:09:34;10.52;;;5.10;;
32200;SDS011;18701;45.588;5.288;2023-05-21T00:12:02;8.15;;;5.32;;
32200;SDS011;18701;45.588;5.288;2023-05-21T00:14:28;8.60;;;5.68;;
32200;SDS011;18701;45.588;5.288;2023-05-21T00:16:54;7.40;;;5.07;;
32200;SDS011;18701;45.588;5.288;2023-05-21T00:19:19;7.20;;;5.43;;
32200;SDS011;18701;45.588;5.288;2023-05-21T00:21:45;8.98;;;5.65;;
32200;SDS011;18701;45.588;5.288;2023-05-21T00:24:10;8.75;;;5.47;;
32200;SDS011;18701;45.588;5.288;2023-05-21T00:26:36;7.38;;;5.22;;
32200;SDS011;18701;45.588;5.288;2023-05-21T00:29:02;6.43;;;4.80;;
32200;SDS011;18701;45.588;5.288;2023-05-21T00:31:29;6.60;;;5.40;;
32200;SDS011;18701;45.588;5.288;2023-05-21T00:33:56;7.85;;;5.70;;
32200;SDS011;18701;45.588;5.288;2023-05-21T00:36:21;9.77;;;5.45;;
32200;SDS011;18701;45.588;5.288;2023-05-21T00:38:48;8.70;;;5.88;;
32200;SDS011;18701;45.588;5.288;2023-05-21T00:41:14;8.60;;;5.43;;
32200;SDS011;18701;45.588;5.288;2023-05-21T00:43:40;9.25;;;6.28;;
32200;SDS011;18701;45.588;5.288;2023-05-21T00:46:13;14.63;;;5.75;;
32200;SDS011;18701;45.588;5.288;2023-05-21T00:48:42;8.73;;;5.53;;
32200;SDS011;18701;45.588;5.288;2023-05-21T00:51:10;9.55;;;5.95;;
32200;SDS011;18701;45.588;5.288;2023-05-21T00:53:36;12.40;;;5.78;;
32200;SDS011;18701;45.588;5.288;2023-05-21T00:56:02;12.95;;;5.78;;
32200;SDS011;18701;45.588;5.288;2023-05-21T00:58:32;10.35;;;5.82;;
32200;SDS011;18701;45.588;5.288;2023-05-21T01:00:58;9.10;;;6.20;;
32200;SDS011;18701;45.588;5.288;2023-05-21T01:03:30;12.90;;;6.32;;
32200;SDS011;18701;45.588;5.288;2023-05-21T01:06:03;8.07;;;6.18;;
32200;SDS011;18701;45.588;5.288;2023-05-21T01:08:30;9.82;;;6.50;;
32200;SDS011;18701;45.588;5.288;2023-05-21T01:10:56;11.75;;;6.43;;
32200;SDS011;18701;45.588;5.288;2023-05-21T01:13:23;9.43;;;5.97;;
32200;SDS011;18701;45.588;5.288;2023-05-21T01:15:50;8.30;;;6.70;;
32200;SDS011;18701;45.588;5.288;2023-05-21T01:18:18;7.43;;;5.60;;
32200;SDS011;18701;45.588;5.288;2023-05-21T01:20:44;15.13;;;6.50;;
32200;SDS011;18701;45.588;5.288;2023-05-21T01:23:16;14.38;;;6.97;;
32200;SDS011;18701;45.588;5.288;2023-05-21T01:25:42;9.73;;;6.00;;
32200;SDS011;18701;45.588;5.288;2023-05-21T01:28:09;11.95;;;6.68;;
32200;SDS011;18701;45.588;5.288;2023-05-21T01:30:34;8.30;;;6.15;;
32200;SDS011;18701;45.588;5.288;2023-05-21T01:33:17;11.10;;;5.93;;
32200;SDS011;18701;45.588;5.288;2023-05-21T01:35:50;12.00;;;6.60;;
32200;SDS011;18701;45.588;5.288;2023-05-21T01:38:35;7.50;;;5.75;;
32200;SDS011;18701;45.588;5.288;2023-05-21T01:41:06;8.63;;;6.45;;
32200;SDS011;18701;45.588;5.288;2023-05-21T01:43:37;9.60;;;6.85;;
32200;SDS011;18701;45.588;5.288;2023-05-21T01:46:06;11.05;;;7.07;;
32200;SDS011;18701;45.588;5.288;2023-05-21T01:48:33;8.27;;;6.85;;
32200;SDS011;18701;45.588;5.288;2023-05-21T01:51:01;7.72;;;6.53;;
32200;SDS011;18701;45.588;5.288;2023-05-21T01:53:27;9.20;;;6.75;;
32200;SDS011;18701;45.588;5.288;2023-05-21T01:55:53;9.38;;;6.25;;
32200;SDS011;18701;45.588;5.288;2023-05-21T01:58:19;9.38;;;6.85;;
32200;SDS011;18701;45.588;5.288;2023-05-21T02:00:45;10.90;;;6.13;;
32200;SDS011;18701;45.588;5.288;2023-05-21T02:03:14;12.20;;;5.90;;
32200;SDS011;18701;45.588;5.288;2023-05-21T02:05:40;9.30;;;6.20;;
32200;SDS011;18701;45.588;5.288;2023-05-21T02:08:06;11.82;;;7.05;;
32200;SDS011;18701;45.588;5.288;2023-05-21T02:10:35;9.98;;;6.55;;
32200;SDS011;18701;45.588;5.288;2023-05-21T02:13:00;10.75;;;6.65;;
32200;SDS011;18701;45.588;5.288;2023-05-21T02:15:26;13.57;;;6.75;;
32200;SDS011;18701;45.588;5.288;2023-05-21T02:17:52;8.25;;;6.55;;
32200;SDS011;18701;45.588;5.288;2023-05-21T02:20:18;14.23;;;7.40;;
32200;SDS011;18701;45.588;5.288;2023-05-21T02:22:44;10.45;;;6.70;;
32200;SDS011;18701;45.588;5.288;2023-05-21T02:25:11;6.85;;;6.13;;
32200;SDS011;18701;45.588;5.288;2023-05-21T02:27:38;10.25;;;6.65;;
32200;SDS011;18701;45.588;5.288;2023-05-21T02:30:07;8.93;;;6.55;;
32200;SDS011;18701;45.588;5.288;2023-05-21T02:32:34;8.68;;;6.60;;
32200;SDS011;18701;45.588;5.288;2023-05-21T02:35:01;12.43;;;6.55;;
32200;SDS011;18701;45.588;5.288;2023-05-21T02:37:28;12.02;;;6.78;;
32200;SDS011;18701;45.588;5.288;2023-05-21T02:39:57;9.48;;;6.18;;
32200;SDS011;18701;45.588;5.288;2023-05-21T02:42:23;14.20;;;6.50;;
32200;SDS011;18701;45.588;5.288;2023-05-21T02:44:49;7.63;;;6.22;;
32200;SDS011;18701;45.588;5.288;2023-05-21T02:47:16;11.25;;;6.85;;
32200;SDS011;18701;45.588;5.288;2023-05-21T02:49:44;8.20;;;6.25;;
32200;SDS011;18701;45.588;5.288;2023-05-21T02:52:11;9.43;;;6.20;;
32200;SDS011;18701;45.588;5.288;2023-05-21T02:54:36;10.45;;;6.05;;
32200;SDS011;18701;45.588;5.288;2023-05-21T02:57:02;9.20;;;6.70;;
32200;SDS011;18701;45.588;5.288;2023-05-21T02:59:28;8.45;;;6.65;;
32200;SDS011;18701;45.588;5.288;2023-05-21T03:01:54;13.30;;;6.65;;
32200;SDS011;18701;45.588;5.288;2023-05-21T03:04:19;16.65;;;7.05;;
32200;SDS011;18701;45.588;5.288;2023-05-21T03:06:48;10.60;;;7.00;;
32200;SDS011;18701;45.588;5.288;2023-05-21T03:09:15;9.50;;;6.50;;
32200;SDS011;18701;45.588;5.288;2023-05-21T03:11:41;15.63;;;6.50;;
32200;SDS011;18701;45.588;5.288;2023-05-21T03:14:07;11.73;;;7.50;;
32200;SDS011;18701;45.588;5.288;2023-05-21T03:16:33;10.95;;;6.38;;
32200;SDS011;18701;45.588;5.288;2023-05-21T03:19:00;13.13;;;7.22;;
32200;SDS011;18701;45.588;5.288;2023-05-21T03:21:26;13.60;;;6.45;;
32200;SDS011;18701;45.588;5.288;2023-05-21T03:23:54;12.70;;;6.35;;
32200;SDS011;18701;45.588;5.288;2023-05-21T03:26:23;10.05;;;6.47;;
32200;SDS011;18701;45.588;5.288;2023-05-21T03:28:51;10.23;;;6.65;;
32200;SDS011;18701;45.588;5.288;2023-05-21T03:31:17;11.15;;;7.10;;
32200;SDS011;18701;45.588;5.288;2023-05-21T03:33:43;13.02;;;6.45;;
32200;SDS011;18701;45.588;5.288;2023-05-21T03:36:08;9.40;;;6.40;;
32200;SDS011;18701;45.588;5.288;2023-05-21T03:38:34;10.00;;;6.88;;
32200;SDS011;18701;45.588;5.288;2023-05-21T03:40:59;9.93;;;6.32;;
32200;SDS011;18701;45.588;5.288;2023-05-21T03:43:25;13.25;;;7.22;;
32200;SDS011;18701;45.588;5.288;2023-05-21T03:45:50;9.07;;;6.95;;
32200;SDS011;18701;45.588;5.288;2023-05-21T03:48:17;8.95;;;6.40;;
32200;SDS011;18701;45.588;5.288;2023-05-21T03:50:42;12.43;;;6.55;;
32200;SDS011;18701;45.588;5.288;2023-05-21T03:53:08;10.70;;;6.40;;
32200;SDS011;18701;45.588;5.288;2023-05-21T03:55:34;11.40;;;6.65;;
32200;SDS011;18701;45.588;5.288;2023-05-21T03:58:00;12.85;;;7.05;;
32200;SDS011;18701;45.588;5.288;2023-05-21T04:00:26;11.40;;;6.57;;
32200;SDS011;18701;45.588;5.288;2023-05-21T04:02:51;10.40;;;6.72;;
32200;SDS011;18701;45.588;5.288;2023-05-21T04:05:17;9.05;;;6.97;;
32200;SDS011;18701;45.588;5.288;2023-05-21T04:07:43;10.25;;;6.95;;
32200;SDS011;18701;45.588;5.288;2023-05-21T04:10:10;8.43;;;7.07;;
32200;SDS011;18701;45.588;5.288;2023-05-21T04:12:36;11.23;;;6.35;;
32200;SDS011;18701;45.588;5.288;2023-05-21T04:15:02;12.60;;;7.03;;
32200;SDS011;18701;45.588;5.288;2023-05-21T04:17:28;8.00;;;6.55;;
32200;SDS011;18701;45.588;5.288;2023-05-21T04:19:53;13.82;;;6.80;;
32200;SDS011;18701;45.588;5.288;2023-05-21T04:22:19;8.27;;;6.85;;
32200;SDS011;18701;45.588;5.288;2023-05-21T04:24:47;12.23;;;6.57;;
32200;SDS011;18701;45.588;5.288;2023-05-21T04:27:13;13.98;;;6.90;;
32200;SDS011;18701;45.588;5.288;2023-05-21T04:29:40;11.82;;;6.68;;
32200;SDS011;18701;45.588;5.288;2023-05-21T04:32:06;9.43;;;6.85;;
32200;SDS011;18701;45.588;5.288;2023-05-21T04:34:32;9.02;;;6.90;;
32200;SDS011;18701;45.588;5.288;2023-05-21T04:36:58;9.90;;;6.78;;
32200;SDS011;18701;45.588;5.288;2023-05-21T04:39:26;13.88;;;6.85;;
32200;SDS011;18701;45.588;5.288;2023-05-21T04:41:52;9.13;;;6.53;;
32200;SDS011;18701;45.588;5.288;2023-05-21T04:44:20;14.80;;;6.78;;
32200;SDS011;18701;45.588;5.288;2023-05-21T04:46:46;9.82;;;6.75;;
32200;SDS011;18701;45.588;5.288;2023-05-21T04:49:12;10.38;;;6.53;;
32200;SDS011;18701;45.588;5.288;2023-05-21T04:51:39;10.82;;;7.20;;
32200;SDS011;18701;45.588;5.288;2023-05-21T04:54:05;12.95;;;7.55;;
32200;SDS011;18701;45.588;5.288;2023-05-21T04:56:31;10.02;;;6.88;;
32200;SDS011;18701;45.588;5.288;2023-05-21T04:58:57;10.43;;;7.18;;
32200;SDS011;18701;45.588;5.288;2023-05-21T05:01:23;12.52;;;6.95;;
32200;SDS011;18701;45.588;5.288;2023-05-21T05:03:50;14.88;;;7.30;;
32200;SDS011;18701;45.588;5.288;2023-05-21T05:06:16;9.68;;;6.97;;
32200;SDS011;18701;45.588;5.288;2023-05-21T05:08:42;7.38;;;6.43;;
32200;SDS011;18701;45.588;5.288;2023-05-21T05:11:10;9.25;;;6.90;;
32200;SDS011;18701;45.588;5.288;2023-05-21T05:13:36;8.07;;;6.72;;
32200;SDS011;18701;45.588;5.288;2023-05-21T05:16:02;13.68;;;7.10;;
32200;SDS011;18701;45.588;5.288;2023-05-21T05:18:28;11.48;;;6.55;;
32200;SDS011;18701;45.588;5.288;2023-05-21T05:20:54;10.32;;;6.75;;
32200;SDS011;18701;45.588;5.288;2023-05-21T05:23:19;10.25;;;7.18;;
32200;SDS011;18701;45.588;5.288;2023-05-21T05:25:45;13.38;;;6.50;;
32200;SDS011;18701;45.588;5.288;2023-05-21T05:28:11;12.70;;;6.57;;
32200;SDS011;18701;45.588;5.288;2023-05-21T05:30:36;8.05;;;6.72;;
32200;SDS011;18701;45.588;5.288;2023-05-21T05:33:02;11.50;;;7.40;;
32200;SDS011;18701;45.588;5.288;2023-05-21T05:35:27;8.93;;;6.45;;
32200;SDS011;18701;45.588;5.288;2023-05-21T05:37:53;9.77;;;6.78;;
32200;SDS011;18701;45.588;5.288;2023-05-21T05:40:19;11.32;;;6.25;;
32200;SDS011;18701;45.588;5.288;2023-05-21T05:42:44;11.27;;;6.68;;
32200;SDS011;18701;45.588;5.288;2023-05-21T05:45:10;10.18;;;6.25;;
32200;SDS011;18701;45.588;5.288;2023-05-21T05:47:36;13.43;;;6.75;;
32200;SDS011;18701;45.588;5.288;2023-05-21T05:50:01;8.68;;;6.53;;
32200;SDS011;18701;45.588;5.288;2023-05-21T05:52:27;7.07;;;6.38;;
32200;SDS011;18701;45.588;5.288;2023-05-21T05:54:53;10.68;;;6.45;;
32200;SDS011;18701;45.588;5.288;2023-05-21T05:57:18;7.47;;;6.53;;
32200;SDS011;18701;45.588;5.288;2023-05-21T05:59:44;8.25;;;6.82;;
32200;SDS011;18701;45.588;5.288;2023-05-21T06:02:09;12.18;;;6.72;;
32200;SDS011;18701;45.588;5.288;2023-05-21T06:04:35;9.63;;;6.53;;
32200;SDS011;18701;45.588;5.288;2023-05-21T06:07:01;9.40;;;6.90;;
32200;SDS011;18701;45.588;5.288;2023-05-21T06:09:26;10.02;;;6.53;;
32200;SDS011;18701;45.588;5.288;2023-05-21T06:11:52;9.13;;;6.15;;
32200;SDS011;18701;45.588;5.288;2023-05-21T06:14:18;7.35;;;6.40;;
32200;SDS011;18701;45.588;5.288;2023-05-21T06:16:44;10.55;;;6.95;;
32200;SDS011;18701;45.588;5.288;2023-05-21T06:19:09;17.20;;;7.70;;
32200;SDS011;18701;45.588;5.288;2023-05-21T06:21:35;12.90;;;7.75;;
32200;SDS011;18701;45.588;5.288;2023-05-21T06:24:00;12.30;;;7.88;;
32200;SDS011;18701;45.588;5.288;2023-05-21T06:26:26;12.52;;;7.13;;
32200;SDS011;18701;45.588;5.288;2023-05-21T06:28:52;9.18;;;7.20;;
32200;SDS011;18701;45.588;5.288;2023-05-21T06:31:17;9.82;;;6.85;;
32200;SDS011;18701;45.588;5.288;2023-05-21T06:33:46;7.53;;;6.70;;
32200;SDS011;18701;45.588;5.288;2023-05-21T06:36:13;12.65;;;7.72;;
32200;SDS011;18701;45.588;5.288;2023-05-21T06:38:39;9.45;;;6.78;;
32200;SDS011;18701;45.588;5.288;2023-05-21T06:41:05;11.98;;;7.18;;
32200;SDS011;18701;45.588;5.288;2023-05-21T06:43:30;9.93;;;7.30;;
32200;SDS011;18701;45.588;5.288;2023-05-21T06:45:56;11.95;;;6.78;;
32200;SDS011;18701;45.588;5.288;2023-05-21T06:48:21;13.68;;;6.70;;
32200;SDS011;18701;45.588;5.288;2023-05-21T06:50:47;16.92;;;8.48;;
32200;SDS011;18701;45.588;5.288;2023-05-21T06:53:13;10.30;;;6.70;;
32200;SDS011;18701;45.588;5.288;2023-05-21T06:55:40;7.75;;;6.53;;
32200;SDS011;18701;45.588;5.288;2023-05-21T06:58:09;13.05;;;7.53;;
32200;SDS011;18701;45.588;5.288;2023-05-21T07:00:35;11.02;;;7.63;;
32200;SDS011;18701;45.588;5.288;2023-05-21T07:03:01;15.65;;;7.40;;
32200;SDS011;18701;45.588;5.288;2023-05-21T07:05:27;11.77;;;7.35;;
32200;SDS011;18701;45.588;5.288;2023-05-21T07:07:52;12.25;;;8.50;;
32200;SDS011;18701;45.588;5.288;2023-05-21T07:10:18;7.97;;;6.95;;
32200;SDS011;18701;45.588;5.288;2023-05-21T07:12:44;8.18;;;7.25;;
32200;SDS011;18701;45.588;5.288;2023-05-21T07:15:09;11.85;;;7.13;;
32200;SDS011;18701;45.588;5.288;2023-05-21T07:17:35;11.88;;;7.53;;
32200;SDS011;18701;45.588;5.288;2023-05-21T07:20:01;10.73;;;7.93;;
32200;SDS011;18701;45.588;5.288;2023-05-21T07:22:31;12.93;;;7.82;;
32200;SDS011;18701;45.588;5.288;2023-05-21T07:24:57;9.80;;;7.75;;
32200;SDS011;18701;45.588;5.288;2023-05-21T07:27:23;12.52;;;7.95;;
32200;SDS011;18701;45.588;5.288;2023-05-21T07:29:48;14.13;;;7.57;;
32200;SDS011;18701;45.588;5.288;2023-05-21T07:32:14;12.18;;;8.05;;
32200;SDS011;18701;45.588;5.288;2023-05-21T07:34:39;16.55;;;8.20;;
32200;SDS011;18701;45.588;5.288;2023-05-21T07:37:05;9.75;;;7.60;;
32200;SDS011;18701;45.588;5.288;2023-05-21T07:39:30;15.15;;;7.20;;
32200;SDS011;18701;45.588;5.288;2023-05-21T07:41:56;14.13;;;8.23;;
32200;SDS011;18701;45.588;5.288;2023-05-21T07:44:22;12.32;;;8.50;;
32200;SDS011;18701;45.588;5.288;2023-05-21T07:46:48;10.35;;;8.60;;
32200;SDS011;18701;45.588;5.288;2023-05-21T07:49:13;10.80;;;7.45;;
32200;SDS011;18701;45.588;5.288;2023-05-21T07:51:41;9.23;;;7.00;;
32200;SDS011;18701;45.588;5.288;2023-05-21T07:54:08;11.52;;;7.95;;
32200;SDS011;18701;45.588;5.288;2023-05-21T07:56:34;9.85;;;7.35;;
32200;SDS011;18701;45.588;5.288;2023-05-21T07:59:02;11.77;;;8.15;;
32200;SDS011;18701;45.588;5.288;2023-05-21T08:01:27;8.95;;;7.50;;
32200;SDS011;18701;45.588;5.288;2023-05-21T08:03:57;11.18;;;7.18;;
32200;SDS011;18701;45.588;5.288;2023-05-21T08:06:25;9.32;;;7.45;;
32200;SDS011;18701;45.588;5.288;2023-05-21T08:08:51;11.10;;;7.43;;
32200;SDS011;18701;45.588;5.288;2023-05-21T08:11:18;11.23;;;7.88;;
32200;SDS011;18701;45.588;5.288;2023-05-21T08:13:45;13.25;;;7.80;;
32200;SDS011;18701;45.588;5.288;2023-05-21T08:16:11;13.95;;;7.57;;
32200;SDS011;18701;45.588;5.288;2023-05-21T08:18:38;12.63;;;7.45;;
32200;SDS011;18701;45.588;5.288;2023-05-21T08:21:03;13.77;;;7.95;;
32200;SDS011;18701;45.588;5.288;2023-05-21T08:23:29;12.32;;;8.07;;
32200;SDS011;18701;45.588;5.288;2023-05-21T08:25:55;12.32;;;9.20;;
32200;SDS011;18701;45.588;5.288;2023-05-21T08:28:21;12.93;;;7.53;;
32200;SDS011;18701;45.588;5.288;2023-05-21T08:30:47;9.95;;;7.22;;
32200;SDS011;18701;45.588;5.288;2023-05-21T08:33:13;10.43;;;7.28;;
32200;SDS011;18701;45.588;5.288;2023-05-21T08:35:40;24.80;;;8.07;;
32200;SDS011;18701;45.588;5.288;2023-05-21T08:38:05;12.07;;;7.63;;
32200;SDS011;18701;45.588;5.288;2023-05-21T08:40:31;10.43;;;7.82;;
32200;SDS011;18701;45.588;5.288;2023-05-21T08:42:57;12.45;;;7.50;;
32200;SDS011;18701;45.588;5.288;2023-05-21T08:45:23;13.30;;;8.27;;
32200;SDS011;18701;45.588;5.288;2023-05-21T08:47:55;9.02;;;6.80;;
32200;SDS011;18701;45.588;5.288;2023-05-21T08:50:22;9.55;;;7.00;;
32200;SDS011;18701;45.588;5.288;2023-05-21T08:52:50;11.80;;;7.07;;
32200;SDS011;18701;45.588;5.288;2023-05-21T08:55:17;11.82;;;7.63;;
32200;SDS011;18701;45.588;5.288;2023-05-21T08:57:43;11.13;;;7.57;;
32200;SDS011;18701;45.588;5.288;2023-05-21T09:00:09;8.20;;;7.07;;
32200;SDS011;18701;45.588;5.288;2023-05-21T09:02:36;8.60;;;6.55;;
32200;SDS011;18701;45.588;5.288;2023-05-21T09:05:04;9.07;;;6.22;;
32200;SDS011;18701;45.588;5.288;2023-05-21T09:07:33;7.88;;;6.70;;
32200;SDS011;18701;45.588;5.288;2023-05-21T09:10:07;7.68;;;6.05;;
32200;SDS011;18701;45.588;5.288;2023-05-21T09:12:37;10.38;;;6.78;;
32200;SDS011;18701;45.588;5.288;2023-05-21T09:15:03;10.25;;;7.68;;
32200;SDS011;18701;45.588;5.288;2023-05-21T09:17:29;12.15;;;7.47;;
32200;SDS011;18701;45.588;5.288;2023-05-21T09:20:05;11.50;;;7.40;;
32200;SDS011;18701;45.588;5.288;2023-05-21T09:22:51;9.75;;;7.63;;
32200;SDS011;18701;45.588;5.288;2023-05-21T09:25:20;8.93;;;7.75;;
32200;SDS011;18701;45.588;5.288;2023-05-21T09:27:47;10.73;;;7.30;;
32200;SDS011;18701;45.588;5.288;2023-05-21T09:30:14;11.88;;;7.00;;
32200;SDS011;18701;45.588;5.288;2023-05-21T09:32:42;9.35;;;7.28;;
32200;SDS011;18701;45.588;5.288;2023-05-21T09:35:12;15.05;;;7.80;;
32200;SDS011;18701;45.588;5.288;2023-05-21T09:37:42;10.80;;;7.32;;
32200;SDS011;18701;45.588;5.288;2023-05-21T09:40:12;8.93;;;7.78;;
32200;SDS011;18701;45.588;5.288;2023-05-21T09:42:39;10.43;;;8.20;;
32200;SDS011;18701;45.588;5.288;2023-05-21T09:45:07;9.90;;;7.15;;
32200;SDS011;18701;45.588;5.288;2023-05-21T09:47:39;12.20;;;8.85;;
32200;SDS011;18701;45.588;5.288;2023-05-21T09:50:06;9.77;;;7.93;;
32200;SDS011;18701;45.588;5.288;2023-05-21T09:52:35;11.13;;;7.30;;
32200;SDS011;18701;45.588;5.288;2023-05-21T09:55:10;10.75;;;8.05;;
32200;SDS011;18701;45.588;5.288;2023-05-21T09:57:43;9.32;;;7.60;;
32200;SDS011;18701;45.588;5.288;2023-05-21T10:02:46;14.07;;;9.90;;
32200;SDS011;18701;45.588;5.288;2023-05-21T10:05:16;15.55;;;8.93;;
32200;SDS011;18701;45.588;5.288;2023-05-21T10:07:44;11.60;;;8.52;;
32200;SDS011;18701;45.588;5.288;2023-05-21T10:10:15;12.13;;;7.93;;
32200;SDS011;18701;45.588;5.288;2023-05-21T10:12:47;12.43;;;8.70;;
32200;SDS011;18701;45.588;5.288;2023-05-21T10:15:21;15.32;;;9.02;;
32200;SDS011;18701;45.588;5.288;2023-05-21T10:17:48;10.52;;;8.20;;
32200;SDS011;18701;45.588;5.288;2023-05-21T10:20:15;18.42;;;8.40;;
32200;SDS011;18701;45.588;5.288;2023-05-21T10:22:41;9.52;;;7.78;;
32200;SDS011;18701;45.588;5.288;2023-05-21T10:25:08;11.73;;;7.47;;
32200;SDS011;18701;45.588;5.288;2023-05-21T10:27:37;9.90;;;8.00;;
32200;SDS011;18701;45.588;5.288;2023-05-21T10:30:04;9.93;;;6.50;;
32200;SDS011;18701;45.588;5.288;2023-05-21T10:32:30;10.07;;;6.93;;
32200;SDS011;18701;45.588;5.288;2023-05-21T10:34:57;9.07;;;7.32;;
32200;SDS011;18701;45.588;5.288;2023-05-21T10:37:24;8.38;;;6.90;;
32200;SDS011;18701;45.588;5.288;2023-05-21T10:39:51;10.30;;;8.13;;
32200;SDS011;18701;45.588;5.288;2023-05-21T11:01:39;10.05;;;7.20;;
32200;SDS011;18701;45.588;5.288;2023-05-21T11:04:06;8.90;;;7.80;;
32200;SDS011;18701;45.588;5.288;2023-05-21T11:06:31;8.32;;;7.55;;
32200;SDS011;18701;45.588;5.288;2023-05-21T11:09:01;11.18;;;7.30;;
32200;SDS011;18701;45.588;5.288;2023-05-21T11:11:49;11.68;;;7.05;;
32200;SDS011;18701;45.588;5.288;2023-05-21T11:14:29;7.80;;;5.75;;
32200;SDS011;18701;45.588;5.288;2023-05-21T11:16:57;7.68;;;5.70;;
32200;SDS011;18701;45.588;5.288;2023-05-21T11:19:33;7.88;;;5.95;;
32200;SDS011;18701;45.588;5.288;2023-05-21T11:22:03;9.27;;;6.57;;
32200;SDS011;18701;45.588;5.288;2023-05-21T11:24:35;7.47;;;6.35;;
32200;SDS011;18701;45.588;5.288;2023-05-21T11:27:01;8.90;;;6.38;;
32200;SDS011;18701;45.588;5.288;2023-05-21T11:29:46;6.70;;;5.32;;
32200;SDS011;18701;45.588;5.288;2023-05-21T11:32:12;6.28;;;5.45;;
32200;SDS011;18701;45.588;5.288;2023-05-21T11:34:46;13.18;;;6.25;;
32200;SDS011;18701;45.588;5.288;2023-05-21T11:42:41;6.72;;;5.55;;
32200;SDS011;18701;45.588;5.288;2023-05-21T11:45:08;6.85;;;4.93;;
32200;SDS011;18701;45.588;5.288;2023-05-21T11:47:34;9.57;;;5.65;;
32200;SDS011;18701;45.588;5.288;2023-05-21T11:50:01;6.45;;;4.38;;
32200;SDS011;18701;45.588;5.288;2023-05-21T11:52:29;6.22;;;5.63;;
32200;SDS011;18701;45.588;5.288;2023-05-21T11:54:55;6.25;;;5.10;;
32200;SDS011;18701;45.588;5.288;2023-05-21T11:57:26;6.68;;;5.38;;
32200;SDS011;18701;45.588;5.288;2023-05-21T11:59:55;7.07;;;5.80;;
32200;SDS011;18701;45.588;5.288;2023-05-21T12:02:31;14.02;;;6.28;;
32200;SDS011;18701;45.588;5.288;2023-05-21T12:04:57;9.27;;;5.25;;
32200;SDS011;18701;45.588;5.288;2023-05-21T12:07:25;8.27;;;5.28;;
32200;SDS011;18701;45.588;5.288;2023-05-21T12:09:52;11.88;;;5.75;;
32200;SDS011;18701;45.588;5.288;2023-05-21T12:12:19;7.75;;;5.43;;
32200;SDS011;18701;45.588;5.288;2023-05-21T12:14:49;5.20;;;4.70;;
32200;SDS011;18701;45.588;5.288;2023-05-21T12:17:21;7.53;;;5.07;;
32200;SDS011;18701;45.588;5.288;2023-05-21T12:19:49;6.18;;;4.93;;
32200;SDS011;18701;45.588;5.288;2023-05-21T12:22:15;6.70;;;5.88;;
32200;SDS011;18701;45.588;5.288;2023-05-21T12:24:41;7.18;;;5.45;;
32200;SDS011;18701;45.588;5.288;2023-05-21T12:27:08;7.93;;;5.50;;
32200;SDS011;18701;45.588;5.288;2023-05-21T12:29:35;5.65;;;5.03;;
32200;SDS011;18701;45.588;5.288;2023-05-21T12:32:08;8.27;;;5.38;;
32200;SDS011;18701;45.588;5.288;2023-05-21T12:34:38;5.55;;;4.70;;
32200;SDS011;18701;45.588;5.288;2023-05-21T12:37:11;5.17;;;4.37;;
32200;SDS011;18701;45.588;5.288;2023-05-21T12:39:42;6.97;;;5.18;;
32200;SDS011;18701;45.588;5.288;2023-05-21T12:42:09;6.93;;;5.25;;
32200;SDS011;18701;45.588;5.288;2023-05-21T12:44:37;5.80;;;5.28;;
32200;SDS011;18701;45.588;5.288;2023-05-21T12:47:04;7.85;;;5.35;;
32200;SDS011;18701;45.588;5.288;2023-05-21T12:49:40;12.07;;;5.40;;
32200;SDS011;18701;45.588;5.288;2023-05-21T12:52:13;6.93;;;5.68;;
32200;SDS011;18701;45.588;5.288;2023-05-21T12:54:44;7.25;;;5.65;;
32200;SDS011;18701;45.588;5.288;2023-05-21T12:57:18;5.85;;;5.30;;
32200;SDS011;18701;45.588;5.288;2023-05-21T12:59:48;7.35;;;5.93;;
32200;SDS011;18701;45.588;5.288;2023-05-21T13:02:21;7.13;;;5.70;;
32200;SDS011;18701;45.588;5.288;2023-05-21T13:05:02;5.30;;;4.80;;
32200;SDS011;18701;45.588;5.288;2023-05-21T13:07:36;5.68;;;5.18;;
32200;SDS011;18701;45.588;5.288;2023-05-21T13:10:04;10.13;;;5.90;;
32200;SDS011;18701;45.588;5.288;2023-05-21T13:12:31;7.20;;;5.72;;
32200;SDS011;18701;45.588;5.288;2023-05-21T13:14:58;7.53;;;5.68;;
32200;SDS011;18701;45.588;5.288;2023-05-21T13:17:25;5.78;;;5.10;;
32200;SDS011;18701;45.588;5.288;2023-05-21T13:22:40;9.10;;;4.75;;
32200;SDS011;18701;45.588;5.288;2023-05-21T13:25:07;5.72;;;5.07;;
32200;SDS011;18701;45.588;5.288;2023-05-21T13:27:35;6.95;;;5.22;;
32200;SDS011;18701;45.588;5.288;2023-05-21T13:30:01;9.55;;;5.63;;
32200;SDS011;18701;45.588;5.288;2023-05-21T13:32:26;7.93;;;5.68;;
32200;SDS011;18701;45.588;5.288;2023-05-21T13:34:52;10.30;;;5.13;;
32200;SDS011;18701;45.588;5.288;2023-05-21T13:37:17;5.68;;;4.35;;
32200;SDS011;18701;45.588;5.288;2023-05-21T13:39:44;8.15;;;5.43;;
32200;SDS011;18701;45.588;5.288;2023-05-21T13:42:10;7.63;;;5.50;;
32200;SDS011;18701;45.588;5.288;2023-05-21T13:44:36;8.30;;;5.57;;
32200;SDS011;18701;45.588;5.288;2023-05-21T13:47:02;6.75;;;4.85;;
32200;SDS011;18701;45.588;5.288;2023-05-21T13:49:32;9.35;;;5.30;;
32200;SDS011;18701;45.588;5.288;2023-05-21T13:51:58;12.10;;;5.18;;
32200;SDS011;18701;45.588;5.288;2023-05-21T13:54:25;6.53;;;5.85;;
32200;SDS011;18701;45.588;5.288;2023-05-21T13:56:51;8.90;;;5.68;;
32200;SDS011;18701;45.588;5.288;2023-05-21T13:59:17;7.55;;;5.00;;
32200;SDS011;18701;45.588;5.288;2023-05-21T14:01:43;6.47;;;5.55;;
32200;SDS011;18701;45.588;5.288;2023-05-21T14:04:09;7.57;;;6.00;;
32200;SDS011;18701;45.588;5.288;2023-05-21T14:06:35;9.15;;;5.55;;
32200;SDS011;18701;45.588;5.288;2023-05-21T14:09:02;7.88;;;5.60;;
32200;SDS011;18701;45.588;5.288;2023-05-21T14:11:29;9.65;;;6.55;;
32200;SDS011;18701;45.588;5.288;2023-05-21T14:13:56;6.75;;;5.93;;
32200;SDS011;18701;45.588;5.288;2023-05-21T14:16:22;7.28;;;5.30;;
32200;SDS011;18701;45.588;5.288;2023-05-21T14:18:54;8.55;;;5.60;;
32200;SDS011;18701;45.588;5.288;2023-05-21T14:21:21;10.63;;;5.80;;
32200;SDS011;18701;45.588;5.288;2023-05-21T14:23:47;9.30;;;6.30;;
32200;SDS011;18701;45.588;5.288;2023-05-21T14:26:13;8.68;;;6.75;;
32200;SDS011;18701;45.588;5.288;2023-05-21T14:28:39;7.07;;;5.72;;
32200;SDS011;18701;45.588;5.288;2023-05-21T14:31:05;7.82;;;6.32;;
32200;SDS011;18701;45.588;5.288;2023-05-21T14:33:31;9.48;;;5.55;;
32200;SDS011;18701;45.588;5.288;2023-05-21T14:35:57;6.68;;;5.20;;
32200;SDS011;18701;45.588;5.288;2023-05-21T14:38:24;9.50;;;6.10;;
32200;SDS011;18701;45.588;5.288;2023-05-21T14:40:49;9.98;;;5.80;;
32200;SDS011;18701;45.588;5.288;2023-05-21T14:43:15;9.70;;;6.53;;
32200;SDS011;18701;45.588;5.288;2023-05-21T14:45:41;8.00;;;5.70;;
32200;SDS011;18701;45.588;5.288;2023-05-21T14:48:06;11.27;;;7.68;;
32200;SDS011;18701;45.588;5.288;2023-05-21T14:50:35;6.63;;;5.95;;
32200;SDS011;18701;45.588;5.288;2023-05-21T14:53:08;7.75;;;5.50;;
32200;SDS011;18701;45.588;5.288;2023-05-21T14:55:35;9.38;;;4.72;;
32200;SDS011;18701;45.588;5.288;2023-05-21T14:58:05;6.72;;;5.28;;
32200;SDS011;18701;45.588;5.288;2023-05-21T15:00:31;5.55;;;5.05;;
32200;SDS011;18701;45.588;5.288;2023-05-21T15:02:57;5.72;;;5.10;;
32200;SDS011;18701;45.588;5.288;2023-05-21T15:05:23;5.00;;;4.60;;
32200;SDS011;18701;45.588;5.288;2023-05-21T15:07:50;7.63;;;5.47;;
32200;SDS011;18701;45.588;5.288;2023-05-21T15:10:15;9.77;;;5.40;;
32200;SDS011;18701;45.588;5.288;2023-05-21T15:12:41;5.18;;;4.40;;